Time;durP1;ratioP1;P1;durP2;ratioP2;P2;SDS_P1;SDS_P2;PMS_P1;PMS_P2;Temp;Humidity;BMP_temperature;BMP_pressure;BME280_temperature;BME280_humidity;BME280_pressure;Samples;Min_cycle;Max_cycle;Signal;HPM_P1;HPM_P2
2021/12/29 00:02:15;;;;;;;111.40;14.65;;;5.20;99.90;;;;;;4998941;28;20133;-79
2021/12/29 00:04:42;;;;;;;124.60;15.63;;;5.20;99.90;;;;;;4993579;28;20056;-79
2021/12/29 00:07:10;;;;;;;104.43;16.83;;;5.20;99.90;;;;;;4992842;28;20054;-79
2021/12/29 00:09:37;;;;;;;436.00;43.58;;;5.20;99.90;;;;;;5015495;28;20433;-79
2021/12/29 00:12:04;;;;;;;199.73;19.73;;;5.20;99.90;;;;;;4992261;28;20050;-79
2021/12/29 00:14:30;;;;;;;370.02;31.15;;;5.20;99.90;;;;;;4995681;28;20049;-79
2021/12/29 00:16:58;;;;;;;398.05;33.35;;;5.20;99.90;;;;;;4993601;28;20061;-79
2021/12/29 00:19:24;;;;;;;79.03;16.13;;;5.20;99.90;;;;;;5001209;28;20497;-79
2021/12/29 00:21:51;;;;;;;127.82;18.45;;;5.20;99.90;;;;;;5011100;28;20512;-79
2021/12/29 00:24:18;;;;;;;360.38;36.75;;;5.20;99.90;;;;;;4986478;28;20061;-79
2021/12/29 00:26:44;;;;;;;63.92;13.10;;;5.20;99.90;;;;;;5001881;28;20136;-79
2021/12/29 00:29:11;;;;;;;314.52;26.02;;;5.20;99.90;;;;;;5007487;28;20061;-78
2021/12/29 00:31:37;;;;;;;249.90;23.42;;;5.20;99.90;;;;;;4998255;28;20042;-79
2021/12/29 00:34:04;;;;;;;23.75;10.55;;;5.20;99.90;;;;;;4986708;28;20058;-80
2021/12/29 00:36:31;;;;;;;34.40;12.00;;;5.20;99.90;;;;;;5001699;28;20045;-79
2021/12/29 00:38:57;;;;;;;11.77;8.75;;;5.20;99.90;;;;;;5014050;28;20050;-79
2021/12/29 00:41:24;;;;;;;170.50;19.80;;;5.20;99.90;;;;;;5004321;28;20066;-78
2021/12/29 00:43:50;;;;;;;133.32;15.80;;;5.20;99.90;;;;;;5010352;28;20537;-79
2021/12/29 00:46:17;;;;;;;42.60;10.77;;;5.10;99.90;;;;;;5016403;28;20473;-79
2021/12/29 00:48:45;;;;;;;25.92;9.60;;;5.10;99.90;;;;;;4989912;28;20046;-79
2021/12/29 00:51:11;;;;;;;15.45;9.15;;;5.10;99.90;;;;;;5013684;28;20045;-78
2021/12/29 00:53:38;;;;;;;213.05;23.35;;;5.10;99.90;;;;;;4992059;28;20050;-79
2021/12/29 00:56:04;;;;;;;13.88;9.80;;;5.10;99.90;;;;;;4988485;28;20416;-79
2021/12/29 00:58:31;;;;;;;53.72;13.00;;;5.20;99.90;;;;;;5003362;28;20066;-79
2021/12/29 01:00:58;;;;;;;18.30;11.38;;;5.20;99.90;;;;;;5002940;28;20045;-78
2021/12/29 01:03:24;;;;;;;38.03;12.02;;;5.20;99.90;;;;;;4990512;28;20046;-79
2021/12/29 01:05:51;;;;;;;50.53;13.13;;;5.20;99.90;;;;;;5007747;28;20057;-78
2021/12/29 01:08:17;;;;;;;69.28;13.95;;;5.20;99.90;;;;;;5020278;28;20048;-79
2021/12/29 01:10:44;;;;;;;34.50;13.68;;;5.30;99.90;;;;;;4992771;28;20046;-79
2021/12/29 01:13:11;;;;;;;23.40;10.52;;;5.40;99.90;;;;;;4993235;28;20054;-79
2021/12/29 01:15:48;;;;;;;88.03;15.68;;;5.40;99.90;;;;;;4987418;28;20058;-79
2021/12/29 01:18:14;;;;;;;46.58;12.85;;;5.40;99.90;;;;;;4986537;28;20058;-80
2021/12/29 01:20:41;;;;;;;34.63;11.05;;;5.40;99.90;;;;;;5004402;28;20061;-80
2021/12/29 01:23:07;;;;;;;70.63;15.55;;;5.40;99.90;;;;;;4991460;28;20057;-79
2021/12/29 01:25:34;;;;;;;97.95;20.20;;;5.50;99.90;;;;;;4998242;28;20054;-79
2021/12/29 01:28:00;;;;;;;34.47;13.35;;;5.50;99.90;;;;;;4996963;28;20085;-78
2021/12/29 01:30:27;;;;;;;32.97;14.15;;;5.40;99.90;;;;;;5004121;28;20049;-79
2021/12/29 01:32:53;;;;;;;24.98;12.50;;;5.50;99.90;;;;;;5003634;28;20049;-79
2021/12/29 01:35:20;;;;;;;57.70;15.93;;;5.50;99.90;;;;;;5003620;28;20060;-79
2021/12/29 01:37:47;;;;;;;22.50;12.88;;;5.50;99.90;;;;;;4996388;28;20057;-79
2021/12/29 01:40:13;;;;;;;34.67;14.93;;;5.50;99.90;;;;;;5011360;28;20054;-79
2021/12/29 01:42:40;;;;;;;30.30;16.63;;;5.50;99.90;;;;;;4980620;28;20073;-79
2021/12/29 01:45:06;;;;;;;37.83;14.40;;;5.50;99.90;;;;;;4977076;28;20054;-79
2021/12/29 01:47:33;;;;;;;36.70;15.40;;;5.50;99.90;;;;;;4988289;28;20046;-79
2021/12/29 01:50:00;;;;;;;57.08;18.17;;;5.50;99.90;;;;;;4991997;28;20498;-79
2021/12/29 01:52:30;;;;;;;45.92;16.50;;;5.50;99.90;;;;;;4989297;28;20065;-79
2021/12/29 01:54:57;;;;;;;29.30;14.30;;;5.50;99.90;;;;;;4989175;28;20058;-78
2021/12/29 01:57:23;;;;;;;46.45;15.98;;;5.60;99.90;;;;;;4976274;28;20319;-79
2021/12/29 01:59:50;;;;;;;23.27;12.68;;;5.60;99.90;;;;;;4985407;28;20042;-79
2021/12/29 02:02:16;;;;;;;28.30;12.93;;;5.60;99.90;;;;;;4979490;28;20071;-79
2021/12/29 02:04:43;;;;;;;25.98;12.25;;;5.60;99.90;;;;;;4980694;28;20085;-77
2021/12/29 02:07:09;;;;;;;26.95;11.68;;;5.60;99.90;;;;;;4984956;28;20055;-79
2021/12/29 02:09:36;;;;;;;23.33;12.80;;;5.60;99.90;;;;;;4991504;28;20050;-79
2021/12/29 02:12:02;;;;;;;33.00;14.77;;;5.70;99.90;;;;;;4991198;28;20186;-78
2021/12/29 02:14:29;;;;;;;41.72;15.73;;;5.70;99.90;;;;;;4992419;28;20050;-79
2021/12/29 02:16:56;;;;;;;41.90;14.82;;;5.70;99.90;;;;;;4990256;28;20045;-79
2021/12/29 02:19:25;;;;;;;25.30;13.00;;;5.60;99.90;;;;;;4981486;28;20057;-79
2021/12/29 02:21:57;;;;;;;31.20;13.15;;;5.70;99.90;;;;;;4981573;28;20108;-79
2021/12/29 02:24:35;;;;;;;20.77;11.77;;;5.60;99.90;;;;;;4987256;28;20098;-79
2021/12/29 02:27:02;;;;;;;27.10;12.00;;;5.60;99.90;;;;;;4978902;28;20077;-79
2021/12/29 02:29:28;;;;;;;34.38;13.35;;;5.60;99.90;;;;;;4985183;28;20054;-79
2021/12/29 02:31:55;;;;;;;28.15;11.57;;;5.60;99.90;;;;;;4988339;28;20074;-79
2021/12/29 02:34:22;;;;;;;23.65;12.30;;;5.60;99.90;;;;;;4982216;28;20054;-79
2021/12/29 02:36:48;;;;;;;21.13;12.15;;;5.60;99.90;;;;;;4985717;28;20042;-79
2021/12/29 02:39:15;;;;;;;26.38;13.50;;;5.60;99.90;;;;;;4981788;28;20046;-79
2021/12/29 02:41:41;;;;;;;35.20;13.13;;;5.70;99.90;;;;;;4989539;28;20057;-78
2021/12/29 02:44:14;;;;;;;50.75;16.50;;;5.70;99.90;;;;;;4982016;28;20075;-79
2021/12/29 02:46:41;;;;;;;50.75;15.43;;;5.70;99.90;;;;;;4978359;28;20062;-79
2021/12/29 02:49:07;;;;;;;77.85;19.10;;;5.70;99.90;;;;;;4988709;28;20053;-79
2021/12/29 02:51:34;;;;;;;55.88;16.02;;;5.80;99.90;;;;;;4986078;28;20058;-79
2021/12/29 02:54:00;;;;;;;54.55;16.02;;;5.80;99.90;;;;;;4988435;28;20073;-79
2021/12/29 02:56:27;;;;;;;43.75;17.17;;;5.70;99.90;;;;;;4983969;28;20401;-79
2021/12/29 02:58:54;;;;;;;34.75;12.70;;;5.80;99.90;;;;;;4987622;28;20486;-79
2021/12/29 03:01:20;;;;;;;42.25;14.38;;;5.80;99.90;;;;;;4990461;28;20146;-79
2021/12/29 03:03:47;;;;;;;41.53;15.93;;;5.80;99.90;;;;;;4982468;28;20057;-79
2021/12/29 03:06:13;;;;;;;43.17;15.75;;;5.80;99.90;;;;;;4981416;28;20043;-79
2021/12/29 03:08:40;;;;;;;41.53;13.52;;;5.80;99.90;;;;;;4980533;28;20052;-79
2021/12/29 03:11:06;;;;;;;37.90;12.95;;;5.80;99.90;;;;;;4990027;28;20061;-79
2021/12/29 03:13:33;;;;;;;47.05;14.88;;;5.80;99.90;;;;;;4980404;28;20053;-78
2021/12/29 03:16:00;;;;;;;43.08;14.52;;;5.80;99.90;;;;;;4989826;28;20496;-79
2021/12/29 03:18:27;;;;;;;40.40;13.40;;;5.80;99.90;;;;;;4984231;28;20058;-78
2021/12/29 03:20:53;;;;;;;42.35;14.32;;;5.80;99.90;;;;;;4987567;28;20058;-79
2021/12/29 03:23:20;;;;;;;42.42;14.95;;;5.80;99.90;;;;;;4981535;28;20070;-78
2021/12/29 03:25:47;;;;;;;40.58;15.27;;;5.80;99.90;;;;;;4979013;28;20053;-79
2021/12/29 03:28:14;;;;;;;53.92;15.68;;;5.80;99.90;;;;;;4990033;28;20471;-79
2021/12/29 03:30:41;;;;;;;48.13;16.33;;;5.90;99.90;;;;;;4992156;28;20046;-80
2021/12/29 03:33:09;;;;;;;61.30;16.92;;;5.90;99.90;;;;;;4986891;28;20050;-79
2021/12/29 03:35:36;;;;;;;50.30;15.55;;;6.00;99.90;;;;;;4989624;28;20421;-80
2021/12/29 03:38:02;;;;;;;62.70;18.27;;;5.90;99.90;;;;;;4984565;28;20486;-80
2021/12/29 03:40:29;;;;;;;95.47;22.50;;;5.90;99.90;;;;;;4982878;28;20059;-79
2021/12/29 03:42:55;;;;;;;74.13;19.88;;;5.90;99.90;;;;;;4993539;28;20059;-79
2021/12/29 03:45:22;;;;;;;89.00;19.83;;;5.90;99.90;;;;;;5006343;28;20053;-79
2021/12/29 03:47:48;;;;;;;64.55;18.73;;;6.00;99.90;;;;;;4994601;28;20054;-79
2021/12/29 03:50:15;;;;;;;60.40;18.10;;;6.00;99.90;;;;;;4981562;28;20054;-79
2021/12/29 03:52:42;;;;;;;54.35;16.92;;;6.00;99.90;;;;;;5008551;28;20058;-80
2021/12/29 03:55:08;;;;;;;50.63;16.23;;;6.00;99.90;;;;;;5003735;28;20054;-79
2021/12/29 03:57:35;;;;;;;56.38;17.20;;;6.00;99.90;;;;;;4993673;28;20493;-80
2021/12/29 04:00:01;;;;;;;47.15;17.45;;;6.10;99.90;;;;;;5005183;28;20057;-79
2021/12/29 04:02:28;;;;;;;68.68;18.50;;;6.10;99.90;;;;;;4982116;28;20566;-79
2021/12/29 04:04:54;;;;;;;58.05;17.33;;;6.10;99.90;;;;;;4993509;28;20096;-79
2021/12/29 04:07:21;;;;;;;81.97;20.08;;;6.20;99.90;;;;;;4984434;28;20068;-79
2021/12/29 04:09:47;;;;;;;54.50;17.00;;;6.20;99.90;;;;;;5002623;28;20050;-79
2021/12/29 04:12:14;;;;;;;58.63;17.73;;;6.30;99.90;;;;;;5008609;28;20062;-79
2021/12/29 04:14:40;;;;;;;73.75;21.02;;;6.30;99.90;;;;;;4984857;28;20069;-79
2021/12/29 04:17:11;;;;;;;57.20;16.80;;;6.20;99.90;;;;;;4991544;28;20062;-79
2021/12/29 04:20:55;;;;;;;;;;;6.30;99.90;;;;;;4984979;28;20132;-79
2021/12/29 04:22:27;;;;;;;76.65;19.45;;;6.20;99.90;;;;;;5010026;28;19921;-79
2021/12/29 04:24:54;;;;;;;61.17;17.05;;;6.30;99.90;;;;;;5005521;28;20465;-79
2021/12/29 04:27:23;;;;;;;77.38;20.10;;;6.30;99.90;;;;;;4989200;28;20044;-79
2021/12/29 04:29:49;;;;;;;64.45;18.05;;;6.30;99.90;;;;;;4988468;28;20413;-79
2021/12/29 04:32:16;;;;;;;63.55;17.30;;;6.30;99.90;;;;;;4988687;28;20054;-79
2021/12/29 04:34:42;;;;;;;59.88;16.40;;;6.30;99.90;;;;;;5008193;28;20058;-79
2021/12/29 04:37:09;;;;;;;63.40;17.13;;;6.30;99.90;;;;;;4998789;28;20047;-79
2021/12/29 04:39:35;;;;;;;81.03;17.13;;;6.30;99.90;;;;;;5002704;28;20038;-79
2021/12/29 04:42:02;;;;;;;65.13;16.58;;;6.30;99.90;;;;;;4977889;28;20083;-79
2021/12/29 04:44:28;;;;;;;63.22;15.20;;;6.30;99.90;;;;;;5005682;28;20061;-79
2021/12/29 04:46:57;;;;;;;69.30;17.25;;;6.30;99.90;;;;;;4994777;28;20061;-79
2021/12/29 04:49:27;;;;;;;53.17;15.13;;;6.30;99.90;;;;;;4990454;28;20050;-79
2021/12/29 04:52:02;;;;;;;66.82;17.13;;;6.30;99.90;;;;;;4994038;28;20062;-80
2021/12/29 04:54:28;;;;;;;67.90;18.27;;;6.30;99.90;;;;;;5007370;28;20053;-80
2021/12/29 04:56:55;;;;;;;75.97;18.77;;;6.30;99.90;;;;;;4981957;28;20129;-79
2021/12/29 04:59:21;;;;;;;63.50;17.70;;;6.30;99.90;;;;;;4996319;28;20089;-79
2021/12/29 05:01:48;;;;;;;68.70;16.10;;;6.30;99.90;;;;;;4991016;28;20057;-79
2021/12/29 05:04:20;;;;;;;92.57;19.30;;;6.30;99.90;;;;;;5008256;28;20050;-79
2021/12/29 05:09:31;;;;;;;67.60;16.90;;;6.30;99.90;;;;;;4985303;28;20050;-79
2021/12/29 05:12:00;;;;;;;106.38;21.50;;;6.40;99.90;;;;;;4989278;28;20496;-78
2021/12/29 05:14:26;;;;;;;112.55;21.95;;;6.40;99.90;;;;;;4996649;28;20056;-78
2021/12/29 05:16:53;;;;;;;142.25;25.45;;;6.40;99.90;;;;;;4988188;28;20413;-79
2021/12/29 05:19:19;;;;;;;114.25;20.98;;;6.40;99.90;;;;;;4996490;28;20046;-80
2021/12/29 05:21:46;;;;;;;141.32;21.95;;;6.40;99.90;;;;;;4986855;28;20501;-79
2021/12/29 05:24:13;;;;;;;109.95;22.05;;;6.50;99.90;;;;;;4995040;28;20058;-78
2021/12/29 05:26:39;;;;;;;146.93;25.17;;;6.40;99.90;;;;;;4987028;28;20516;-79
2021/12/29 05:29:06;;;;;;;187.23;25.73;;;6.40;99.90;;;;;;4995170;28;20401;-78
2021/12/29 05:31:32;;;;;;;131.13;24.60;;;6.40;99.90;;;;;;4992973;28;20059;-79
2021/12/29 05:33:59;;;;;;;173.30;26.38;;;6.40;99.90;;;;;;4996205;28;20050;-79
2021/12/29 05:36:25;;;;;;;166.35;27.15;;;6.40;99.90;;;;;;4993191;28;20053;-79
2021/12/29 05:38:53;;;;;;;169.32;29.08;;;6.40;99.90;;;;;;5018322;28;20045;-79
2021/12/29 05:41:19;;;;;;;135.68;24.55;;;6.40;99.90;;;;;;5000571;28;20054;-79
2021/12/29 05:43:46;;;;;;;152.63;27.73;;;6.40;99.90;;;;;;5008552;28;20172;-79
2021/12/29 05:46:12;;;;;;;172.45;28.75;;;6.40;99.90;;;;;;4980739;28;20057;-79
2021/12/29 05:48:39;;;;;;;199.57;27.88;;;6.40;99.90;;;;;;5006204;28;20057;-79
2021/12/29 05:51:06;;;;;;;152.00;26.08;;;6.40;99.90;;;;;;5009552;28;20410;-79
2021/12/29 05:53:32;;;;;;;237.15;30.95;;;6.40;99.90;;;;;;4985765;28;20501;-79
2021/12/29 05:55:59;;;;;;;160.98;29.80;;;6.40;99.90;;;;;;4992142;28;20046;-79
2021/12/29 05:58:25;;;;;;;267.75;37.38;;;6.40;99.90;;;;;;4996135;28;20050;-81
2021/12/29 06:00:52;;;;;;;246.30;33.83;;;6.40;99.90;;;;;;4985161;28;20489;-78
2021/12/29 06:03:20;;;;;;;292.42;38.28;;;6.40;99.90;;;;;;5008011;28;20489;-79
2021/12/29 06:05:47;;;;;;;183.30;31.15;;;6.50;99.90;;;;;;4992082;28;20085;-79
2021/12/29 06:08:13;;;;;;;208.85;30.95;;;6.40;99.90;;;;;;5008648;28;20438;-78
2021/12/29 06:10:40;;;;;;;273.88;36.97;;;6.40;99.90;;;;;;5003831;28;20041;-79
2021/12/29 06:13:07;;;;;;;297.70;38.83;;;6.40;99.90;;;;;;4993543;28;20054;-78
2021/12/29 06:15:34;;;;;;;235.82;33.50;;;6.40;99.90;;;;;;5007904;28;20053;-80
2021/12/29 06:18:00;;;;;;;286.55;37.97;;;6.40;99.90;;;;;;4994648;28;20124;-78
2021/12/29 06:20:27;;;;;;;210.63;30.70;;;6.40;99.90;;;;;;5001211;28;20064;-79
2021/12/29 06:22:53;;;;;;;262.52;33.38;;;6.40;99.90;;;;;;4997341;28;20505;-78
2021/12/29 06:25:20;;;;;;;231.45;31.48;;;6.40;99.90;;;;;;5010222;28;20050;-78
2021/12/29 06:27:46;;;;;;;263.75;34.72;;;6.50;99.90;;;;;;4993431;28;20046;-79
2021/12/29 06:30:13;;;;;;;307.05;43.38;;;6.40;99.90;;;;;;4992067;28;20042;-78
2021/12/29 06:32:39;;;;;;;326.08;42.15;;;6.40;99.90;;;;;;4997742;28;20050;-78
2021/12/29 06:35:06;;;;;;;287.67;37.83;;;6.40;99.90;;;;;;4995902;28;20052;-78
2021/12/29 06:37:32;;;;;;;212.68;31.90;;;6.40;99.90;;;;;;5001231;28;20485;-79
2021/12/29 06:39:59;;;;;;;207.40;29.95;;;6.40;99.90;;;;;;5012611;28;20474;-78
2021/12/29 06:42:26;;;;;;;300.58;37.88;;;6.40;99.90;;;;;;5009289;28;20081;-78
2021/12/29 06:44:52;;;;;;;218.95;34.55;;;6.40;99.90;;;;;;5012069;28;20054;-79
2021/12/29 06:47:19;;;;;;;252.60;35.67;;;6.40;99.90;;;;;;4997129;28;20041;-79
2021/12/29 06:49:45;;;;;;;197.52;31.08;;;6.40;99.90;;;;;;5002997;28;20461;-78
2021/12/29 06:52:12;;;;;;;233.32;34.80;;;6.50;99.90;;;;;;4987330;28;20481;-78
2021/12/29 06:54:38;;;;;;;242.38;32.72;;;6.40;99.90;;;;;;4995079;28;20057;-79
2021/12/29 06:57:05;;;;;;;217.40;33.67;;;6.40;99.90;;;;;;4995248;28;20046;-77
2021/12/29 06:59:31;;;;;;;247.77;36.20;;;6.40;99.90;;;;;;4994733;28;20057;-79
2021/12/29 07:01:58;;;;;;;225.27;34.13;;;6.40;99.90;;;;;;5004728;28;20050;-79
2021/12/29 07:04:24;;;;;;;250.65;33.08;;;6.40;99.90;;;;;;4987876;28;20477;-79
2021/12/29 07:06:51;;;;;;;196.10;31.38;;;6.40;99.90;;;;;;5007863;28;20718;-79
2021/12/29 07:09:18;;;;;;;221.98;31.23;;;6.40;99.90;;;;;;4992345;28;20057;-78
2021/12/29 07:11:44;;;;;;;145.10;24.95;;;6.30;99.90;;;;;;5014590;28;20066;-79
2021/12/29 07:14:11;;;;;;;196.00;30.00;;;6.30;99.90;;;;;;5005876;28;20042;-79
2021/12/29 07:16:37;;;;;;;212.02;30.83;;;6.30;99.90;;;;;;4993152;28;20052;-79
2021/12/29 07:19:04;;;;;;;361.38;42.67;;;6.40;99.90;;;;;;5018826;28;20067;-79
2021/12/29 07:21:30;;;;;;;203.85;28.17;;;6.30;99.90;;;;;;4989872;28;20049;-79
2021/12/29 07:23:57;;;;;;;80.43;20.13;;;6.40;99.90;;;;;;4988789;28;20046;-77
2021/12/29 07:26:23;;;;;;;170.05;23.50;;;6.30;99.90;;;;;;4989534;28;20042;-79
2021/12/29 07:28:50;;;;;;;346.52;40.25;;;6.30;99.90;;;;;;4982978;28;20056;-79
2021/12/29 07:31:18;;;;;;;239.95;29.40;;;6.40;99.90;;;;;;4988059;28;20105;-77
2021/12/29 07:33:44;;;;;;;389.27;39.35;;;6.40;99.90;;;;;;4979465;28;20062;-79
2021/12/29 07:36:11;;;;;;;268.95;28.15;;;6.50;99.90;;;;;;4978217;28;20065;-78
2021/12/29 07:38:38;;;;;;;287.25;32.85;;;6.30;99.90;;;;;;5009574;28;20045;-79
2021/12/29 07:41:04;;;;;;;257.40;30.73;;;6.40;99.90;;;;;;4993102;28;20112;-79
2021/12/29 07:43:31;;;;;;;328.27;35.65;;;6.40;99.90;;;;;;4991695;28;20489;-79
2021/12/29 07:45:58;;;;;;;368.13;37.25;;;6.30;99.90;;;;;;4976213;28;20667;-78
2021/12/29 07:48:28;;;;;;;450.33;40.55;;;6.30;99.90;;;;;;4991262;28;20079;-77
2021/12/29 07:50:54;;;;;;;347.40;31.48;;;6.30;99.90;;;;;;4986397;28;20883;-79
2021/12/29 07:53:21;;;;;;;605.55;59.33;;;6.30;99.90;;;;;;4982853;28;20053;-79
2021/12/29 07:55:47;;;;;;;315.73;38.00;;;6.30;99.90;;;;;;4980420;28;20057;-79
2021/12/29 07:58:14;;;;;;;148.25;26.40;;;6.30;99.90;;;;;;4995598;28;20050;-78
2021/12/29 08:00:41;;;;;;;54.03;20.15;;;6.20;99.90;;;;;;4987569;28;20042;-79
2021/12/29 08:03:07;;;;;;;84.13;17.35;;;6.30;99.90;;;;;;4989241;28;20132;-79
2021/12/29 08:05:34;;;;;;;267.20;32.00;;;6.30;99.90;;;;;;5013138;28;20053;-78
2021/12/29 08:08:02;;;;;;;199.20;29.70;;;6.30;99.90;;;;;;4990029;28;20054;-79
2021/12/29 08:10:28;;;;;;;109.45;26.52;;;6.30;99.90;;;;;;4979924;28;20482;-78
2021/12/29 08:12:55;;;;;;;107.80;26.48;;;6.30;99.90;;;;;;4995404;28;20062;-79
2021/12/29 08:15:21;;;;;;;115.65;28.05;;;6.30;99.90;;;;;;4989928;28;20433;-79
2021/12/29 08:17:48;;;;;;;97.15;24.02;;;6.40;99.90;;;;;;4993678;28;20050;-79
2021/12/29 08:20:14;;;;;;;208.85;35.13;;;6.40;99.90;;;;;;4985259;28;20058;-79
2021/12/29 08:22:41;;;;;;;192.85;36.72;;;6.40;99.90;;;;;;5007052;28;20104;-79
2021/12/29 08:25:07;;;;;;;86.53;24.38;;;6.40;99.90;;;;;;4998885;28;20046;-78
2021/12/29 08:27:34;;;;;;;172.43;31.25;;;6.40;99.90;;;;;;5005342;28;20057;-78
2021/12/29 08:30:01;;;;;;;265.63;40.60;;;6.50;99.90;;;;;;4988681;28;20053;-78
2021/12/29 08:32:27;;;;;;;255.15;33.00;;;6.50;99.90;;;;;;4982685;28;20045;-79
2021/12/29 08:34:54;;;;;;;394.35;44.47;;;6.40;99.90;;;;;;5008044;28;20060;-79
2021/12/29 08:37:20;;;;;;;229.80;36.28;;;6.50;99.90;;;;;;5008167;28;20054;-79
2021/12/29 08:39:47;;;;;;;152.73;30.67;;;6.40;99.90;;;;;;4986421;28;20046;-79
2021/12/29 08:42:13;;;;;;;214.93;34.78;;;6.40;99.90;;;;;;4992258;28;20073;-79
2021/12/29 08:44:40;;;;;;;241.52;39.05;;;6.40;99.90;;;;;;4994025;28;20046;-79
2021/12/29 08:47:08;;;;;;;208.73;32.63;;;6.40;99.90;;;;;;5006215;28;20512;-79
2021/12/29 08:49:35;;;;;;;194.55;31.60;;;6.40;99.90;;;;;;4992195;28;20064;-79
2021/12/29 08:52:01;;;;;;;139.48;27.30;;;6.40;99.90;;;;;;4991009;28;20050;-79
2021/12/29 08:54:28;;;;;;;249.52;39.08;;;6.40;99.90;;;;;;4991782;28;20054;-79
2021/12/29 08:56:55;;;;;;;222.82;35.63;;;6.50;99.90;;;;;;4991687;28;20061;-77
2021/12/29 08:59:22;;;;;;;304.80;42.20;;;6.50;99.90;;;;;;4992259;28;20058;-77
2021/12/29 09:01:52;;;;;;;286.33;38.50;;;6.40;99.90;;;;;;4994092;28;20053;-79
2021/12/29 09:04:20;;;;;;;355.20;46.85;;;6.50;99.90;;;;;;4992346;28;20057;-76
2021/12/29 09:06:47;;;;;;;218.88;37.08;;;6.50;99.90;;;;;;4991072;28;20057;-79
2021/12/29 09:09:14;;;;;;;194.32;33.85;;;6.50;99.90;;;;;;5009547;28;20056;-78
2021/12/29 09:11:40;;;;;;;140.90;28.55;;;6.50;99.90;;;;;;4990711;28;20511;-79
2021/12/29 09:14:07;;;;;;;334.25;43.58;;;6.50;99.90;;;;;;4990859;28;20065;-79
2021/12/29 09:16:33;;;;;;;171.65;30.02;;;6.50;99.90;;;;;;4992260;28;20046;-79
2021/12/29 09:19:00;;;;;;;198.60;32.83;;;6.50;99.90;;;;;;4989783;28;20057;-79
2021/12/29 09:21:28;;;;;;;79.43;22.08;;;6.50;99.90;;;;;;4991155;28;20054;-79
2021/12/29 09:23:55;;;;;;;143.82;29.10;;;6.50;99.90;;;;;;4991375;28;20050;-79
2021/12/29 09:26:21;;;;;;;124.90;27.98;;;6.50;99.90;;;;;;5009116;28;20477;-79
2021/12/29 09:28:48;;;;;;;324.63;40.42;;;6.60;99.90;;;;;;4991154;28;20057;-79
2021/12/29 09:31:14;;;;;;;275.98;39.10;;;6.60;99.90;;;;;;5008988;28;20042;-79
2021/12/29 09:33:41;;;;;;;239.68;34.45;;;6.60;99.90;;;;;;4989936;28;20470;-79
2021/12/29 09:36:08;;;;;;;260.15;35.03;;;6.60;99.90;;;;;;5012638;28;20839;-79
2021/12/29 09:38:35;;;;;;;219.30;30.50;;;6.60;99.90;;;;;;4987975;28;20401;-78
2021/12/29 09:41:01;;;;;;;113.70;25.40;;;6.60;99.90;;;;;;4991075;28;20448;-79
2021/12/29 09:43:28;;;;;;;125.82;25.65;;;6.60;99.90;;;;;;4991944;28;20050;-78
2021/12/29 09:45:55;;;;;;;115.43;24.42;;;6.60;99.90;;;;;;4991713;28;20050;-79
2021/12/29 09:48:21;;;;;;;113.90;25.85;;;6.70;99.90;;;;;;4998059;28;20045;-79
2021/12/29 09:50:51;;;;;;;140.13;26.42;;;6.70;99.90;;;;;;4994325;28;20046;-79
2021/12/29 09:53:21;;;;;;;80.47;20.23;;;6.70;99.90;;;;;;4995329;28;20553;-78
2021/12/29 09:55:47;;;;;;;95.13;23.88;;;6.70;99.90;;;;;;4994873;28;20125;-80
2021/12/29 09:58:14;;;;;;;75.35;21.23;;;6.80;99.90;;;;;;4993866;28;20052;-83
2021/12/29 10:00:40;;;;;;;112.80;23.20;;;6.80;99.90;;;;;;4993428;28;20046;-78
2021/12/29 10:03:07;;;;;;;103.18;23.55;;;6.80;99.90;;;;;;5007035;28;20061;-78
2021/12/29 10:05:34;;;;;;;76.40;20.27;;;6.80;99.90;;;;;;5010428;28;20049;-79
2021/12/29 10:08:00;;;;;;;108.00;23.40;;;6.80;99.90;;;;;;4991566;28;20046;-78
2021/12/29 10:10:27;;;;;;;78.70;20.23;;;6.90;99.90;;;;;;4994009;28;20049;-79
2021/12/29 10:12:53;;;;;;;49.22;17.15;;;6.90;99.90;;;;;;4989363;28;20061;-79
2021/12/29 10:15:20;;;;;;;47.30;17.33;;;7.00;99.90;;;;;;4991958;28;20054;-79
2021/12/29 10:17:47;;;;;;;37.80;14.98;;;7.00;99.90;;;;;;4993429;28;20056;-78
2021/12/29 10:20:13;;;;;;;41.90;14.68;;;7.00;99.90;;;;;;5010694;28;20052;-78
2021/12/29 10:22:40;;;;;;;45.88;15.02;;;7.10;99.90;;;;;;4995807;28;20049;-79
2021/12/29 10:25:07;;;;;;;52.88;16.05;;;7.10;99.90;;;;;;5009340;28;20077;-77
2021/12/29 10:27:34;;;;;;;62.88;15.98;;;7.10;99.90;;;;;;4993407;28;20409;-78
2021/12/29 10:30:00;;;;;;;48.70;16.23;;;7.10;99.90;;;;;;5009509;28;20053;-79
2021/12/29 10:32:27;;;;;;;63.15;16.70;;;7.10;99.90;;;;;;5012178;28;20487;-79
2021/12/29 10:34:53;;;;;;;72.00;18.25;;;7.10;99.90;;;;;;4994641;28;20058;-80
2021/12/29 10:37:20;;;;;;;58.22;16.98;;;7.20;99.90;;;;;;5011291;28;20049;-79
2021/12/29 10:39:47;;;;;;;63.63;18.00;;;7.20;99.90;;;;;;4994640;28;20061;-79
2021/12/29 10:42:13;;;;;;;60.22;16.65;;;7.20;99.90;;;;;;4991018;28;20712;-79
2021/12/29 10:44:40;;;;;;;71.97;17.30;;;7.20;99.90;;;;;;4992412;28;20469;-79
2021/12/29 10:47:06;;;;;;;72.22;20.08;;;7.20;99.90;;;;;;4994064;28;20042;-77
2021/12/29 10:49:33;;;;;;;114.60;19.20;;;7.30;99.90;;;;;;4994292;28;20056;-79
2021/12/29 10:52:00;;;;;;;40.80;16.40;;;7.20;99.90;;;;;;5006683;28;20054;-79
2021/12/29 10:54:27;;;;;;;78.47;17.20;;;7.20;99.90;;;;;;5012959;28;20046;-80
2021/12/29 10:56:53;;;;;;;96.95;17.33;;;7.30;99.90;;;;;;5011859;28;20053;-79
2021/12/29 10:59:20;;;;;;;83.63;18.90;;;7.30;99.90;;;;;;4989466;28;20567;-79
2021/12/29 11:01:47;;;;;;;84.88;19.95;;;7.30;99.90;;;;;;5011212;28;20105;-79
2021/12/29 11:04:13;;;;;;;83.57;18.33;;;7.30;99.90;;;;;;5010817;28;20049;-79
2021/12/29 11:06:40;;;;;;;77.45;19.73;;;7.40;99.90;;;;;;4997537;28;20104;-79
2021/12/29 11:09:07;;;;;;;82.95;18.55;;;7.40;99.90;;;;;;4992314;28;20060;-79
2021/12/29 11:11:33;;;;;;;77.28;18.67;;;7.40;99.90;;;;;;4994756;28;20057;-79
2021/12/29 11:14:00;;;;;;;86.78;19.70;;;7.40;99.90;;;;;;4994177;28;20045;-75
2021/12/29 11:16:26;;;;;;;70.95;19.88;;;7.50;99.90;;;;;;4992785;28;20057;-78
2021/12/29 11:18:53;;;;;;;90.57;20.05;;;7.50;99.90;;;;;;4988982;28;20050;-78
2021/12/29 11:21:19;;;;;;;43.92;15.52;;;7.60;99.90;;;;;;4993976;28;20046;-78
2021/12/29 11:23:46;;;;;;;42.45;14.80;;;7.60;99.90;;;;;;5004799;28;20058;-78
2021/12/29 11:26:12;;;;;;;54.15;16.52;;;7.60;99.90;;;;;;4988570;28;20057;-78
2021/12/29 11:28:39;;;;;;;28.27;13.05;;;7.60;99.90;;;;;;5008028;28;20052;-78
2021/12/29 11:31:06;;;;;;;27.67;11.82;;;7.60;99.90;;;;;;4993422;28;20052;-78
2021/12/29 11:33:32;;;;;;;36.67;12.90;;;7.60;99.90;;;;;;4992314;28;20054;-78
2021/12/29 11:35:59;;;;;;;21.48;10.85;;;7.70;99.90;;;;;;4994130;28;20050;-78
2021/12/29 11:38:25;;;;;;;29.35;10.43;;;7.60;99.90;;;;;;4986157;28;20054;-78
2021/12/29 11:40:52;;;;;;;23.30;9.80;;;7.60;99.90;;;;;;4993287;28;20061;-78
2021/12/29 11:43:19;;;;;;;21.08;9.32;;;7.60;99.90;;;;;;4991277;28;20057;-78
2021/12/29 11:45:45;;;;;;;22.13;10.63;;;7.60;99.90;;;;;;5011495;28;20058;-78
2021/12/29 11:48:12;;;;;;;17.50;9.18;;;7.60;99.90;;;;;;4992938;28;20053;-79
2021/12/29 11:50:38;;;;;;;26.65;10.80;;;7.60;99.90;;;;;;4988079;28;20061;-78
2021/12/29 11:53:05;;;;;;;17.42;10.20;;;7.70;99.90;;;;;;4988719;28;20050;-78
2021/12/29 11:55:32;;;;;;;24.00;10.10;;;7.60;99.90;;;;;;5009555;28;20129;-78
2021/12/29 11:57:58;;;;;;;24.13;11.00;;;7.70;99.90;;;;;;4994070;28;20107;-78
2021/12/29 12:00:25;;;;;;;26.25;11.98;;;7.70;99.90;;;;;;4996912;28;20511;-77
2021/12/29 12:02:51;;;;;;;24.25;10.40;;;7.70;99.90;;;;;;4990254;28;20054;-78
2021/12/29 12:05:18;;;;;;;25.23;11.15;;;7.70;99.90;;;;;;4993510;28;20504;-78
2021/12/29 12:07:44;;;;;;;22.40;10.77;;;7.80;99.90;;;;;;4999431;28;20501;-78
2021/12/29 12:10:12;;;;;;;16.35;10.60;;;7.70;99.90;;;;;;4998628;28;20057;-78
2021/12/29 12:12:38;;;;;;;21.20;10.07;;;7.70;99.90;;;;;;4990582;28;20045;-78
2021/12/29 12:15:07;;;;;;;15.05;9.77;;;7.70;99.90;;;;;;4982942;28;20054;-78
2021/12/29 12:17:33;;;;;;;21.70;9.52;;;7.70;99.90;;;;;;4981590;28;20061;-78
2021/12/29 12:20:00;;;;;;;17.67;10.65;;;7.70;99.90;;;;;;5007574;28;20082;-79
2021/12/29 12:22:26;;;;;;;18.10;9.38;;;7.70;99.90;;;;;;4986834;28;20054;-78
2021/12/29 12:24:54;;;;;;;22.95;10.77;;;7.70;99.90;;;;;;5013742;28;20057;-79
2021/12/29 12:27:21;;;;;;;19.25;8.63;;;7.70;99.90;;;;;;4987159;28;20494;-79
2021/12/29 12:29:48;;;;;;;14.18;8.57;;;7.70;99.90;;;;;;5005479;28;20072;-79
2021/12/29 12:32:15;;;;;;;19.63;9.23;;;7.70;99.90;;;;;;4984263;28;20065;-78
2021/12/29 12:34:42;;;;;;;14.90;7.97;;;7.70;99.90;;;;;;4986270;28;20436;-79